Time,TemperatureF,DewpointF,PressureIn,WindDirection,WindDirectionDegrees,WindSpeedMPH,WindSpeedGustMPH,Humidity,HourlyPrecipIn,Conditions,Clouds,dailyrainin,SoftwareType,DateUTC
2013-08-29 00:12:00,71.9,67.0,29.99,ESE,110,0.0,0.0,83,0.00,,,0.00,weatherlink.com 1.10,2013-08-29 05:12:00,
2013-08-29 00:27:00,71.7,66.0,29.99,ESE,110,0.0,0.0,83,0.00,,,0.00,weatherlink.com 1.10,2013-08-29 05:27:00,
2013-08-29 00:42:00,71.6,67.0,29.99,ESE,110,0.0,0.0,84,0.00,,,0.00,weatherlink.com 1.10,2013-08-29 05:42:00,
2013-08-29 00:57:00,70.9,66.0,29.99,ESE,110,0.0,0.0,85,0.00,,,0.00,weatherlink.com 1.10,2013-08-29 05:57:00,
2013-08-29 01:12:00,71.5,67.0,29.99,ESE,110,0.0,0.0,86,0.00,,,0.00,weatherlink.com 1.10,2013-08-29 06:12:00,
2013-08-29 01:27:00,71.9,68.0,29.98,ESE,110,0.0,1.0,86,0.00,,,0.00,weatherlink.com 1.10,2013-08-29 06:27:00,
2013-08-29 01:43:00,72.2,68.0,29.98,ESE,111,0.0,1.0,86,0.00,,,0.00,weatherlink.com 1.10,2013-08-29 06:43:00,
2013-08-29 01:58:00,72.7,68.0,29.98,ESE,111,0.0,1.0,86,0.00,,,0.00,weatherlink.com 1.10,2013-08-29 06:58:00,
2013-08-29 02:13:00,72.7,68.0,29.97,ESE,113,0.0,1.0,86,0.00,,,0.00,weatherlink.com 1.10,2013-08-29 07:13:00,
2013-08-29 02:28:00,72.8,68.0,29.97,ESE,112,0.0,1.0,86,0.00,,,0.00,weatherlink.com 1.10,2013-08-29 07:28:00,
2013-08-29 02:43:00,72.9,69.0,29.98,ESE,114,0.0,1.0,87,0.00,,,0.00,weatherlink.com 1.10,2013-08-29 07:43:00,
2013-08-29 02:58:00,73.2,69.0,29.96,ESE,115,0.0,1.0,87,0.00,,,0.00,weatherlink.com 1.10,2013-08-29 07:58:00,
2013-08-29 03:13:00,73.6,70.0,29.95,ESE,111,0.0,1.0,87,0.00,,,0.00,weatherlink.com 1.10,2013-08-29 08:13:00,
2013-08-29 03:28:00,73.8,70.0,29.95,ESE,119,0.0,1.0,87,0.00,,,0.00,weatherlink.com 1.10,2013-08-29 08:28:00,
2013-08-29 03:43:00,73.8,70.0,29.94,ESE,112,0.0,1.0,88,0.00,,,0.00,weatherlink.com 1.10,2013-08-29 08:43:00,
2013-08-29 03:58:00,74.1,70.0,29.95,SW,215,1.0,2.0,88,0.00,,,0.00,weatherlink.com 1.10,2013-08-29 08:58:00,
2013-08-29 04:13:00,74.7,71.0,29.96,SSW,208,3.0,3.0,88,0.00,,,0.00,weatherlink.com 1.10,2013-08-29 09:13:00,
2013-08-29 04:28:00,73.8,70.0,29.95,SW,225,3.0,3.0,88,0.05,,,0.05,weatherlink.com 1.10,2013-08-29 09:28:00,
2013-08-29 04:43:00,71.7,68.0,29.93,North,351,1.0,3.0,87,0.13,,,0.13,weatherlink.com 1.10,2013-08-29 09:43:00,
2013-08-29 04:58:00,70.7,67.0,29.94,SSE,155,0.0,1.0,89,0.13,,,0.13,weatherlink.com 1.10,2013-08-29 09:58:00,
2013-08-29 05:13:00,70.3,67.0,29.94,SSE,155,0.0,0.0,90,0.13,,,0.13,weatherlink.com 1.10,2013-08-29 10:13:00,
2013-08-29 05:28:00,70.4,68.0,29.92,SSE,155,0.0,1.0,91,0.08,,,0.13,weatherlink.com 1.10,2013-08-29 10:28:00,
2013-08-29 05:43:00,70.5,68.0,29.92,SE,139,0.0,0.0,92,0.00,,,0.13,weatherlink.com 1.10,2013-08-29 10:43:00,
2013-08-29 05:58:00,70.4,68.0,29.92,SE,140,0.0,1.0,92,0.00,,,0.13,weatherlink.com 1.10,2013-08-29 10:58:00,
2013-08-29 06:13:00,70.9,69.0,29.91,SE,129,0.0,1.0,93,0.00,,,0.13,weatherlink.com 1.10,2013-08-29 11:13:00,
2013-08-29 06:28:00,71.0,69.0,29.90,ESE,108,0.0,1.0,92,0.00,,,0.13,weatherlink.com 1.10,2013-08-29 11:28:00,
2013-08-29 06:43:00,71.9,70.0,29.89,ESE,102,1.0,1.0,93,0.00,,,0.13,weatherlink.com 1.10,2013-08-29 11:43:00,
2013-08-29 06:58:00,72.4,70.0,29.89,East,101,0.0,1.0,93,0.00,,,0.13,weatherlink.com 1.10,2013-08-29 11:58:00,
2013-08-29 07:13:00,72.7,71.0,29.89,ESE,105,0.0,1.0,93,0.00,,,0.13,weatherlink.com 1.10,2013-08-29 12:13:00,
2013-08-29 07:28:00,72.7,70.0,29.90,ESE,114,0.0,1.0,92,0.00,,,0.13,weatherlink.com 1.10,2013-08-29 12:28:00,
2013-08-29 07:43:00,72.9,71.0,29.91,ESE,114,0.0,0.0,93,0.00,,,0.13,weatherlink.com 1.10,2013-08-29 12:43:00,
2013-08-29 07:58:00,72.5,70.0,29.96,WNW,288,4.0,15.0,90,0.00,,,0.13,weatherlink.com 1.10,2013-08-29 12:58:00,
2013-08-29 08:13:00,71.6,68.0,29.96,NW,312,2.0,4.0,89,0.02,,,0.15,weatherlink.com 1.10,2013-08-29 13:13:00,
2013-08-29 08:28:00,70.6,68.0,29.95,West,278,0.0,2.0,90,0.03,,,0.16,weatherlink.com 1.10,2013-08-29 13:28:00,
2013-08-29 08:43:00,70.2,68.0,29.94,West,278,0.0,1.0,91,0.03,,,0.16,weatherlink.com 1.10,2013-08-29 13:43:00,
2013-08-29 08:58:00,70.0,68.0,29.94,ESE,114,0.0,0.0,92,0.03,,,0.16,weatherlink.com 1.10,2013-08-29 13:58:00,
2013-08-29 09:13:00,70.0,68.0,29.91,ESE,102,2.0,3.0,92,0.02,,,0.17,weatherlink.com 1.10,2013-08-29 14:13:00,
2013-08-29 09:28:00,70.2,68.0,29.86,East,94,4.0,6.0,93,0.02,,,0.18,weatherlink.com 1.10,2013-08-29 14:28:00,
2013-08-29 09:43:00,71.2,69.0,29.87,ESE,104,3.0,10.0,93,0.02,,,0.18,weatherlink.com 1.10,2013-08-29 14:43:00,
2013-08-29 09:58:00,72.3,70.0,29.87,East,96,2.0,4.0,91,0.02,,,0.18,weatherlink.com 1.10,2013-08-29 14:58:00,
2013-08-29 10:13:00,73.7,71.0,29.87,East,89,1.0,3.0,91,0.01,,,0.18,weatherlink.com 1.10,2013-08-29 15:13:00,
2013-08-29 10:28:00,75.7,72.0,29.87,ENE,68,1.0,5.0,89,0.00,,,0.18,weatherlink.com 1.10,2013-08-29 15:28:00,
2013-08-29 10:43:00,77.3,73.0,29.87,SW,218,0.0,4.0,86,0.00,,,0.18,weatherlink.com 1.10,2013-08-29 15:43:00,
2013-08-29 10:58:00,79.3,73.0,29.86,ESE,112,1.0,7.0,82,0.00,,,0.18,weatherlink.com 1.10,2013-08-29 15:58:00,
2013-08-29 11:13:00,80.7,74.0,29.87,South,176,3.0,8.0,79,0.00,,,0.18,weatherlink.com 1.10,2013-08-29 16:13:00,
2013-08-29 11:28:00,81.3,73.0,29.85,SW,225,2.0,5.0,77,0.00,,,0.18,weatherlink.com 1.10,2013-08-29 16:28:00,
2013-08-29 11:44:00,82.2,73.0,29.86,SSW,210,2.0,5.0,73,0.00,,,0.18,weatherlink.com 1.10,2013-08-29 16:44:00,
2013-08-29 11:59:00,83.0,72.0,29.86,SSW,208,3.0,5.0,69,0.00,,,0.18,weatherlink.com 1.10,2013-08-29 16:59:00,
2013-08-29 12:14:00,83.5,72.0,29.86,SSW,197,2.0,6.0,69,0.00,,,0.18,weatherlink.com 1.10,2013-08-29 17:14:00,
2013-08-29 12:29:00,84.9,72.0,29.88,West,276,3.0,5.0,66,0.00,,,0.18,weatherlink.com 1.10,2013-08-29 17:29:00,
2013-08-29 12:44:00,85.4,72.0,29.88,SSW,203,3.0,6.0,65,0.00,,,0.18,weatherlink.com 1.10,2013-08-29 17:44:00,
2013-08-29 12:59:00,85.8,73.0,29.87,SSW,198,1.0,6.0,65,0.00,,,0.18,weatherlink.com 1.10,2013-08-29 17:59:00,
2013-08-29 13:14:00,85.8,72.0,29.88,SW,235,3.0,5.0,64,0.00,,,0.18,weatherlink.com 1.10,2013-08-29 18:14:00,
2013-08-29 13:29:00,86.0,73.0,29.88,West,275,1.0,5.0,65,0.00,,,0.18,weatherlink.com 1.10,2013-08-29 18:29:00,
2013-08-29 13:44:00,85.7,73.0,29.89,West,273,3.0,6.0,66,0.00,,,0.18,weatherlink.com 1.10,2013-08-29 18:44:00,
2013-08-29 13:59:00,85.9,73.0,29.88,WSW,240,2.0,4.0,65,0.00,,,0.18,weatherlink.com 1.10,2013-08-29 18:59:00,
2013-08-29 14:14:00,86.3,73.0,29.88,West,264,2.0,6.0,65,0.00,,,0.18,weatherlink.com 1.10,2013-08-29 19:14:00,
2013-08-29 14:29:00,85.8,74.0,29.88,WNW,298,3.0,4.0,67,0.00,,,0.18,weatherlink.com 1.10,2013-08-29 19:29:00,
2013-08-29 14:44:00,86.1,73.0,29.87,West,266,2.0,6.0,66,0.00,,,0.18,weatherlink.com 1.10,2013-08-29 19:44:00,
2013-08-29 14:59:00,85.6,73.0,29.87,WSW,238,0.0,3.0,65,0.00,,,0.18,weatherlink.com 1.10,2013-08-29 19:59:00,
2013-08-29 15:14:00,86.8,72.0,29.87,NW,307,3.0,5.0,62,0.00,,,0.18,weatherlink.com 1.10,2013-08-29 20:14:00,
2013-08-29 15:29:00,85.6,72.0,29.87,NW,325,0.0,4.0,64,0.00,,,0.18,weatherlink.com 1.10,2013-08-29 20:29:00,
2013-08-29 15:44:00,85.3,72.0,29.87,West,264,1.0,5.0,64,0.00,,,0.18,weatherlink.com 1.10,2013-08-29 20:44:00,
2013-08-29 15:59:00,85.8,71.0,29.87,NW,307,1.0,6.0,61,0.00,,,0.18,weatherlink.com 1.10,2013-08-29 20:59:00,
2013-08-29 16:14:00,85.9,71.0,29.87,West,264,1.0,7.0,61,0.00,,,0.18,weatherlink.com 1.10,2013-08-29 21:14:00,
2013-08-29 16:29:00,85.7,70.0,29.88,NW,312,2.0,7.0,60,0.00,,,0.18,weatherlink.com 1.10,2013-08-29 21:29:00,
2013-08-29 16:44:00,85.7,70.0,29.89,NNW,329,0.0,5.0,60,0.00,,,0.18,weatherlink.com 1.10,2013-08-29 21:44:00,
2013-08-29 16:59:00,85.3,70.0,29.89,NW,314,1.0,6.0,60,0.00,,,0.18,weatherlink.com 1.10,2013-08-29 21:59:00,
2013-08-29 17:14:00,85.1,70.0,29.88,NW,307,1.0,5.0,60,0.00,,,0.18,weatherlink.com 1.10,2013-08-29 22:14:00,
2013-08-29 17:29:00,84.7,69.0,29.88,WNW,288,1.0,9.0,60,0.00,,,0.18,weatherlink.com 1.10,2013-08-29 22:29:00,
2013-08-29 17:44:00,84.8,68.0,29.89,NNW,340,4.0,8.0,58,0.00,,,0.18,weatherlink.com 1.10,2013-08-29 22:44:00,
2013-08-29 17:59:00,84.2,69.0,29.90,NNE,13,4.0,8.0,60,0.00,,,0.18,weatherlink.com 1.10,2013-08-29 22:59:00,
2013-08-29 18:14:00,83.7,69.0,29.90,WSW,255,1.0,8.0,62,0.00,,,0.18,weatherlink.com 1.10,2013-08-29 23:14:00,
2013-08-29 18:29:00,83.2,69.0,29.90,South,179,0.0,3.0,63,0.00,,,0.18,weatherlink.com 1.10,2013-08-29 23:29:00,
2013-08-29 18:44:00,82.4,69.0,29.91,WSW,255,1.0,4.0,65,0.00,,,0.18,weatherlink.com 1.10,2013-08-29 23:44:00,
2013-08-29 18:59:00,81.9,69.0,29.91,NE,56,1.0,4.0,66,0.00,,,0.18,weatherlink.com 1.10,2013-08-29 23:59:00,
2013-08-29 19:14:00,81.4,69.0,29.91,WNW,284,0.0,5.0,67,0.00,,,0.18,weatherlink.com 1.10,2013-08-30 00:14:00,
2013-08-29 19:29:00,80.7,70.0,29.91,NNE,32,0.0,3.0,69,0.00,,,0.18,weatherlink.com 1.10,2013-08-30 00:29:00,
2013-08-29 19:44:00,79.8,69.0,29.91,WNW,290,0.0,2.0,70,0.00,,,0.18,weatherlink.com 1.10,2013-08-30 00:44:00,
2013-08-29 19:59:00,78.8,69.0,29.92,NW,309,0.0,1.0,73,0.00,,,0.18,weatherlink.com 1.10,2013-08-30 00:59:00,
2013-08-29 20:14:00,77.7,70.0,29.93,WNW,295,0.0,2.0,77,0.00,,,0.18,weatherlink.com 1.10,2013-08-30 01:14:00,
2013-08-29 20:29:00,76.7,70.0,29.93,West,275,0.0,2.0,79,0.00,,,0.18,weatherlink.com 1.10,2013-08-30 01:29:00,
2013-08-29 20:44:00,75.9,69.0,29.93,NW,314,0.0,1.0,80,0.00,,,0.18,weatherlink.com 1.10,2013-08-30 01:44:00,
2013-08-29 20:59:00,75.2,69.0,29.94,NW,312,0.0,2.0,81,0.00,,,0.18,weatherlink.com 1.10,2013-08-30 01:59:00,
2013-08-29 21:14:00,74.5,69.0,29.94,WNW,295,0.0,2.0,82,0.00,,,0.18,weatherlink.com 1.10,2013-08-30 02:14:00,
2013-08-29 21:29:00,74.0,68.0,29.94,WNW,290,0.0,2.0,81,0.00,,,0.18,weatherlink.com 1.10,2013-08-30 02:29:00,
2013-08-29 21:44:00,73.6,67.0,29.95,WNW,288,0.0,1.0,80,0.00,,,0.18,weatherlink.com 1.10,2013-08-30 02:44:00,
2013-08-29 21:59:00,73.0,67.0,29.95,WNW,292,0.0,2.0,81,0.00,,,0.18,weatherlink.com 1.10,2013-08-30 02:59:00,
2013-08-29 22:14:00,72.6,67.0,29.95,West,262,1.0,4.0,82,0.00,,,0.18,weatherlink.com 1.10,2013-08-30 03:14:00,
2013-08-29 22:29:00,72.2,67.0,29.95,WNW,293,1.0,2.0,83,0.00,,,0.18,weatherlink.com 1.10,2013-08-30 03:29:00,
2013-08-29 22:44:00,71.5,67.0,29.96,WNW,302,0.0,1.0,84,0.00,,,0.18,weatherlink.com 1.10,2013-08-30 03:44:00,
2013-08-29 22:59:00,70.9,66.0,29.96,NNE,18,0.0,1.0,85,0.00,,,0.18,weatherlink.com 1.10,2013-08-30 03:59:00,
2013-08-29 23:14:00,70.2,66.0,29.96,NNE,33,0.0,1.0,86,0.00,,,0.18,weatherlink.com 1.10,2013-08-30 04:14:00,
2013-08-29 23:29:00,70.0,66.0,29.97,NE,36,0.0,2.0,86,0.00,,,0.18,weatherlink.com 1.10,2013-08-30 04:29:00,
2013-08-29 23:44:00,69.8,66.0,29.97,WNW,302,0.0,1.0,87,0.00,,,0.18,weatherlink.com 1.10,2013-08-30 04:44:00,
2013-08-29 23:59:00,69.5,66.0,29.97,WNW,291,0.0,1.0,87,0.00,,,0.18,weatherlink.com 1.10,2013-08-30 04:59:00,